Impacts METAR Board
IDs:

KMLB - Melbourne Intl, FL, US

Updated at: 1000 UTC 28 Sep 2021
Potential Impact None Slight Moderate High
Time 27/22Z 27/23Z 28/00Z 28/01Z 28/02Z 28/03Z 28/04Z 28/05Z 28/06Z 28/07Z 28/08Z 28/09Z 28/10Z
Temp83 81 80 79 79 79 77 77 76 75 67 67 67
Dewpt63 63 61 63 62 62 61 62 61 62 62 62 62
Altim30.05 30.05 30.06 30.07 30.08 30.07 30.06 30.05 30.03 30.02 30.01 30.01 30.02
VIS10 10 10 10 10 10 10 10 10 10 10 10 10
CIG-- -- -- -- -- -- -- -- -- -- -- -- --
CoverSCTFEWCLRSCTCLRCLRCLRCLRCLRCLRCLRCLRCLR
FltCatVFRVFRVFRVFRVFRVFRVFRVFRVFRVFRVFRVFRVFR
WX--------------------------
WDir60706080808070807060000
WSpd9 8 9 7 6 7 7 6 4 4 0 0 0
WGst-- -- -- -- -- -- -- -- -- -- -- -- --
Raw hourly METARs
KMLB 272153Z 06009KT 10SM SCT045 28/17 A3005 RMK AO2 SLP173 T02830172
KMLB 272253Z 07008KT 10SM FEW046 27/17 A3005 RMK AO2 SLP176 T02720172
KMLB 272353Z AUTO 06009KT 10SM CLR 27/16 A3006 RMK AO2 SLP177 T02670161 10300 20261 53005
KMLB 280053Z 08007KT 10SM R09R/5500VP6000FT SCT049 26/17 A3007 RMK AO2 SLP182 T02610172
KMLB 280153Z 08006KT 10SM CLR 26/17 A3008 RMK AO2 SLP184 T02610167
KMLB 280253Z 08007KT 10SM CLR 26/17 A3007 RMK AO2 SLP182 T02610167 50004
KMLB 280353Z AUTO 07007KT 10SM CLR 25/16 A3006 RMK AO2 SLP180 T02500161
KMLB 280453Z AUTO 08006KT 10SM CLR 25/17 A3005 RMK AO2 SLP175 T02500167 403000194
KMLB 280553Z AUTO 07004KT 10SM CLR 24/16 A3003 RMK AO2 SLP169 T02440161 10267 20244 58012
KMLB 280653Z AUTO 06004KT 10SM CLR 24/17 A3002 RMK AO2 SLP164 T02390167
KMLB 280753Z AUTO 00000KT 10SM CLR 19/17 A3001 RMK AO2 SLP161 T01940167
KMLB 280853Z AUTO 00000KT 10SM CLR 19/17 A3001 RMK AO2 SLP162 T01940167 55008
KMLB 280953Z 00000KT 10SM CLR 19/17 A3002 RMK AO2 SLP164 T01940167



Page loaded:  10:30 UTC  |   03:30 AM Pacific  |   04:30 AM Mountain  |   05:30 AM Central  |   06:30 AM Eastern

 

ADVISORIES

FORECASTS

FORECASTS

OBSERVATIONS

USER TOOLS

ABOUT US